McCullochs Mills, Pennsylvania
Current Conditions -  °F | °C
As of 1:53 PM on Tuesday 27 Jan 2015 (Local Time) from KUNV Reporting Station
Light Snow Light Snow  
Wind Chill: 14°   Ceiling: 3500
Heat Index: 25°   Visibility: 6mi
Dew Point: 16°   Wind: 12mph
Humidity: 69%   Direction: 320°NW
Pressure: 29.82"   Gusts: NA
Location:  40.4333°N, 77.5863°W
Report Text: KUNV 271853Z 32010KT 6SM -SN SCT024 BKN035 OVC045 M04/M09 A2982
Loading
Personal Weather Stations






























Interactive Weather Map New forecast layout! Learn more

10-Day Weather Forecast

Advertisements
Track Severe Weather on mobile